sensor_id;sensor_type;location;lat;lon;timestamp;P1;durP1;ratioP1;P2;durP2;ratioP2
13368;SDS011;6753;52.520;13.450;2023-03-14T00:00:11;1030.00;;;914.38;;
13368;SDS011;6753;52.520;13.450;2023-03-14T00:00:24;1020.33;;;907.50;;
13368;SDS011;6753;52.520;13.450;2023-03-14T00:00:35;1014.15;;;902.33;;
13368;SDS011;6753;52.520;13.450;2023-03-14T00:00:45;1011.33;;;899.85;;
13368;SDS011;6753;52.520;13.450;2023-03-14T00:00:57;1009.35;;;898.25;;
13368;SDS011;6753;52.520;13.450;2023-03-14T00:01:09;1018.72;;;906.30;;
13368;SDS011;6753;52.520;13.450;2023-03-14T00:01:21;1029.70;;;915.45;;
13368;SDS011;6753;52.520;13.450;2023-03-14T00:01:33;1028.75;;;914.22;;
13368;SDS011;6753;52.520;13.450;2023-03-14T00:01:43;1020.97;;;907.67;;
13368;SDS011;6753;52.520;13.450;2023-03-14T00:01:55;1018.65;;;905.58;;
13368;SDS011;6753;52.520;13.450;2023-03-14T00:02:05;1015.75;;;903.00;;
13368;SDS011;6753;52.520;13.450;2023-03-14T00:02:17;1010.50;;;898.65;;
13368;SDS011;6753;52.520;13.450;2023-03-14T00:02:28;1010.10;;;898.27;;
13368;SDS011;6753;52.520;13.450;2023-03-14T00:02:39;1013.65;;;901.25;;
13368;SDS011;6753;52.520;13.450;2023-03-14T00:02:51;1014.22;;;902.00;;
13368;SDS011;6753;52.520;13.450;2023-03-14T00:03:02;1012.10;;;899.95;;
13368;SDS011;6753;52.520;13.450;2023-03-14T00:03:13;1013.60;;;901.10;;
13368;SDS011;6753;52.520;13.450;2023-03-14T00:03:25;1012.42;;;899.90;;
13368;SDS011;6753;52.520;13.450;2023-03-14T00:03:38;1014.65;;;902.25;;
13368;SDS011;6753;52.520;13.450;2023-03-14T00:03:49;1015.72;;;903.03;;
13368;SDS011;6753;52.520;13.450;2023-03-14T00:04:00;1017.10;;;904.22;;
13368;SDS011;6753;52.520;13.450;2023-03-14T00:04:13;1015.45;;;903.03;;
13368;SDS011;6753;52.520;13.450;2023-03-14T00:04:24;1017.07;;;904.57;;
13368;SDS011;6753;52.520;13.450;2023-03-14T00:04:36;1016.25;;;903.55;;
13368;SDS011;6753;52.520;13.450;2023-03-14T00:04:47;1015.42;;;902.92;;
13368;SDS011;6753;52.520;13.450;2023-03-14T00:04:58;1014.30;;;902.05;;
13368;SDS011;6753;52.520;13.450;2023-03-14T00:05:09;1011.83;;;900.03;;
13368;SDS011;6753;52.520;13.450;2023-03-14T00:05:19;1009.20;;;897.47;;
13368;SDS011;6753;52.520;13.450;2023-03-14T00:05:30;1007.17;;;895.83;;
13368;SDS011;6753;52.520;13.450;2023-03-14T00:05:41;1003.47;;;892.90;;
13368;SDS011;6753;52.520;13.450;2023-03-14T00:05:52;999.80;;;889.85;;
13368;SDS011;6753;52.520;13.450;2023-03-14T00:06:02;1002.50;;;891.87;;
13368;SDS011;6753;52.520;13.450;2023-03-14T00:06:15;1003.20;;;892.40;;
13368;SDS011;6753;52.520;13.450;2023-03-14T00:06:26;1006.22;;;895.15;;
13368;SDS011;6753;52.520;13.450;2023-03-14T00:06:37;1008.13;;;896.42;;
13368;SDS011;6753;52.520;13.450;2023-03-14T00:06:48;1010.50;;;898.38;;
13368;SDS011;6753;52.520;13.450;2023-03-14T00:06:59;1009.58;;;897.55;;
13368;SDS011;6753;52.520;13.450;2023-03-14T00:07:10;1008.95;;;896.97;;
13368;SDS011;6753;52.520;13.450;2023-03-14T00:07:23;1007.33;;;895.10;;
13368;SDS011;6753;52.520;13.450;2023-03-14T00:07:34;1005.20;;;893.53;;
13368;SDS011;6753;52.520;13.450;2023-03-14T00:07:46;1005.75;;;893.42;;
13368;SDS011;6753;52.520;13.450;2023-03-14T00:07:57;1006.95;;;892.58;;
13368;SDS011;6753;52.520;13.450;2023-03-14T00:08:08;1006.27;;;892.90;;
13368;SDS011;6753;52.520;13.450;2023-03-14T00:08:21;1001.85;;;890.67;;
13368;SDS011;6753;52.520;13.450;2023-03-14T00:08:33;1002.13;;;891.03;;
13368;SDS011;6753;52.520;13.450;2023-03-14T00:08:44;1003.80;;;892.80;;
13368;SDS011;6753;52.520;13.450;2023-03-14T00:08:56;1003.50;;;893.00;;
13368;SDS011;6753;52.520;13.450;2023-03-14T00:09:07;1002.22;;;891.97;;
13368;SDS011;6753;52.520;13.450;2023-03-14T00:09:18;1002.35;;;892.10;;
13368;SDS011;6753;52.520;13.450;2023-03-14T00:09:29;1002.13;;;892.00;;
13368;SDS011;6753;52.520;13.450;2023-03-14T00:09:40;1000.88;;;890.78;;
13368;SDS011;6753;52.520;13.450;2023-03-14T00:09:51;999.22;;;888.92;;
13368;SDS011;6753;52.520;13.450;2023-03-14T00:10:02;998.15;;;888.03;;
13368;SDS011;6753;52.520;13.450;2023-03-14T00:10:15;998.58;;;888.10;;
13368;SDS011;6753;52.520;13.450;2023-03-14T00:10:26;999.60;;;889.10;;
13368;SDS011;6753;52.520;13.450;2023-03-14T00:10:38;999.42;;;888.97;;
13368;SDS011;6753;52.520;13.450;2023-03-14T00:10:49;998.08;;;888.13;;
13368;SDS011;6753;52.520;13.450;2023-03-14T00:11:03;996.33;;;886.73;;
13368;SDS011;6753;52.520;13.450;2023-03-14T00:11:15;995.65;;;886.17;;
13368;SDS011;6753;52.520;13.450;2023-03-14T00:11:28;995.72;;;886.22;;
13368;SDS011;6753;52.520;13.450;2023-03-14T00:11:39;996.28;;;886.67;;
13368;SDS011;6753;52.520;13.450;2023-03-14T00:11:50;999.40;;;889.20;;
13368;SDS011;6753;52.520;13.450;2023-03-14T00:12:01;1003.42;;;892.58;;
13368;SDS011;6753;52.520;13.450;2023-03-14T00:12:13;1005.80;;;894.67;;
13368;SDS011;6753;52.520;13.450;2023-03-14T00:12:24;1005.07;;;894.00;;
13368;SDS011;6753;52.520;13.450;2023-03-14T00:12:35;1005.20;;;894.25;;
13368;SDS011;6753;52.520;13.450;2023-03-14T00:12:46;1002.83;;;891.97;;
13368;SDS011;6753;52.520;13.450;2023-03-14T00:12:56;1000.57;;;890.13;;
13368;SDS011;6753;52.520;13.450;2023-03-14T00:13:07;999.13;;;889.05;;
13368;SDS011;6753;52.520;13.450;2023-03-14T00:13:18;996.75;;;886.95;;
13368;SDS011;6753;52.520;13.450;2023-03-14T00:13:29;994.22;;;884.90;;
13368;SDS011;6753;52.520;13.450;2023-03-14T00:13:40;992.78;;;883.55;;
13368;SDS011;6753;52.520;13.450;2023-03-14T00:13:52;992.38;;;883.00;;
13368;SDS011;6753;52.520;13.450;2023-03-14T00:14:03;991.30;;;882.10;;
13368;SDS011;6753;52.520;13.450;2023-03-14T00:14:16;991.28;;;882.00;;
13368;SDS011;6753;52.520;13.450;2023-03-14T00:14:26;992.28;;;882.75;;
13368;SDS011;6753;52.520;13.450;2023-03-14T00:14:37;993.53;;;883.90;;
13368;SDS011;6753;52.520;13.450;2023-03-14T00:14:48;991.33;;;882.28;;
13368;SDS011;6753;52.520;13.450;2023-03-14T00:14:59;990.25;;;881.33;;
13368;SDS011;6753;52.520;13.450;2023-03-14T00:15:13;991.53;;;882.42;;
13368;SDS011;6753;52.520;13.450;2023-03-14T00:15:24;994.55;;;884.90;;
13368;SDS011;6753;52.520;13.450;2023-03-14T00:15:35;995.80;;;885.80;;
13368;SDS011;6753;52.520;13.450;2023-03-14T00:15:45;998.50;;;887.90;;
13368;SDS011;6753;52.520;13.450;2023-03-14T00:16:01;1001.60;;;890.55;;
13368;SDS011;6753;52.520;13.450;2023-03-14T00:16:12;1000.13;;;889.10;;
13368;SDS011;6753;52.520;13.450;2023-03-14T00:16:23;997.70;;;887.15;;
13368;SDS011;6753;52.520;13.450;2023-03-14T00:16:34;996.08;;;885.78;;
13368;SDS011;6753;52.520;13.450;2023-03-14T00:16:45;996.05;;;885.95;;
13368;SDS011;6753;52.520;13.450;2023-03-14T00:16:56;994.85;;;884.85;;
13368;SDS011;6753;52.520;13.450;2023-03-14T00:17:07;996.65;;;886.65;;
13368;SDS011;6753;52.520;13.450;2023-03-14T00:17:18;998.10;;;888.40;;
13368;SDS011;6753;52.520;13.450;2023-03-14T00:17:29;999.03;;;889.40;;
13368;SDS011;6753;52.520;13.450;2023-03-14T00:17:40;998.38;;;888.88;;
13368;SDS011;6753;52.520;13.450;2023-03-14T00:17:54;999.08;;;889.53;;
13368;SDS011;6753;52.520;13.450;2023-03-14T00:18:05;994.70;;;885.53;;
13368;SDS011;6753;52.520;13.450;2023-03-14T00:18:16;990.83;;;882.00;;
13368;SDS011;6753;52.520;13.450;2023-03-14T00:18:26;987.83;;;879.33;;
13368;SDS011;6753;52.520;13.450;2023-03-14T00:18:37;986.15;;;878.05;;
13368;SDS011;6753;52.520;13.450;2023-03-14T00:18:49;983.60;;;875.50;;
13368;SDS011;6753;52.520;13.450;2023-03-14T00:18:59;981.25;;;873.35;;
13368;SDS011;6753;52.520;13.450;2023-03-14T00:19:10;980.67;;;872.78;;
13368;SDS011;6753;52.520;13.450;2023-03-14T00:19:22;979.40;;;871.80;;
13368;SDS011;6753;52.520;13.450;2023-03-14T00:19:33;977.65;;;869.95;;
13368;SDS011;6753;52.520;13.450;2023-03-14T00:19:43;976.60;;;869.05;;
13368;SDS011;6753;52.520;13.450;2023-03-14T00:19:54;976.58;;;869.60;;
13368;SDS011;6753;52.520;13.450;2023-03-14T00:20:05;979.00;;;872.00;;
13368;SDS011;6753;52.520;13.450;2023-03-14T00:20:18;978.72;;;871.92;;
13368;SDS011;6753;52.520;13.450;2023-03-14T00:20:30;979.75;;;873.00;;
13368;SDS011;6753;52.520;13.450;2023-03-14T00:20:40;978.35;;;871.95;;
13368;SDS011;6753;52.520;13.450;2023-03-14T00:20:51;977.05;;;870.72;;
13368;SDS011;6753;52.520;13.450;2023-03-14T00:21:02;976.83;;;870.50;;
13368;SDS011;6753;52.520;13.450;2023-03-14T00:21:15;975.65;;;869.45;;
13368;SDS011;6753;52.520;13.450;2023-03-14T00:21:25;974.22;;;868.35;;
13368;SDS011;6753;52.520;13.450;2023-03-14T00:21:37;971.67;;;866.08;;
13368;SDS011;6753;52.520;13.450;2023-03-14T00:21:48;970.53;;;865.10;;
13368;SDS011;6753;52.520;13.450;2023-03-14T00:21:59;968.70;;;863.22;;
13368;SDS011;6753;52.520;13.450;2023-03-14T00:22:09;968.70;;;863.33;;
13368;SDS011;6753;52.520;13.450;2023-03-14T00:22:21;968.08;;;862.58;;
13368;SDS011;6753;52.520;13.450;2023-03-14T00:22:32;968.35;;;862.85;;
13368;SDS011;6753;52.520;13.450;2023-03-14T00:22:43;968.78;;;863.17;;
13368;SDS011;6753;52.520;13.450;2023-03-14T00:22:55;967.90;;;862.53;;
13368;SDS011;6753;52.520;13.450;2023-03-14T00:23:05;966.83;;;861.63;;
13368;SDS011;6753;52.520;13.450;2023-03-14T00:23:16;966.90;;;861.80;;
13368;SDS011;6753;52.520;13.450;2023-03-14T00:23:27;966.70;;;861.80;;
13368;SDS011;6753;52.520;13.450;2023-03-14T00:23:40;966.42;;;861.50;;
13368;SDS011;6753;52.520;13.450;2023-03-14T00:23:52;966.30;;;861.50;;
13368;SDS011;6753;52.520;13.450;2023-03-14T00:24:03;966.53;;;861.63;;
13368;SDS011;6753;52.520;13.450;2023-03-14T00:24:15;964.10;;;859.38;;
13368;SDS011;6753;52.520;13.450;2023-03-14T00:24:26;965.05;;;860.20;;
13368;SDS011;6753;52.520;13.450;2023-03-14T00:24:37;964.90;;;860.05;;
13368;SDS011;6753;52.520;13.450;2023-03-14T00:24:48;964.80;;;859.97;;
13368;SDS011;6753;52.520;13.450;2023-03-14T00:24:58;965.58;;;860.55;;
13368;SDS011;6753;52.520;13.450;2023-03-14T00:25:10;968.70;;;863.30;;
13368;SDS011;6753;52.520;13.450;2023-03-14T00:25:21;968.78;;;863.08;;
13368;SDS011;6753;52.520;13.450;2023-03-14T00:25:33;969.38;;;863.60;;
13368;SDS011;6753;52.520;13.450;2023-03-14T00:25:45;970.50;;;864.50;;
13368;SDS011;6753;52.520;13.450;2023-03-14T00:25:58;971.28;;;865.38;;
13368;SDS011;6753;52.520;13.450;2023-03-14T00:26:10;970.83;;;865.10;;
13368;SDS011;6753;52.520;13.450;2023-03-14T00:26:22;970.17;;;864.67;;
13368;SDS011;6753;52.520;13.450;2023-03-14T00:26:33;970.35;;;864.58;;
13368;SDS011;6753;52.520;13.450;2023-03-14T00:26:43;969.75;;;863.85;;
13368;SDS011;6753;52.520;13.450;2023-03-14T00:26:54;969.67;;;863.53;;
13368;SDS011;6753;52.520;13.450;2023-03-14T00:27:05;969.40;;;863.20;;
13368;SDS011;6753;52.520;13.450;2023-03-14T00:27:16;968.90;;;862.63;;
13368;SDS011;6753;52.520;13.450;2023-03-14T00:27:27;967.53;;;861.72;;
13368;SDS011;6753;52.520;13.450;2023-03-14T00:27:38;967.78;;;862.42;;
13368;SDS011;6753;52.520;13.450;2023-03-14T00:27:50;968.33;;;862.90;;
13368;SDS011;6753;52.520;13.450;2023-03-14T00:28:01;966.83;;;861.72;;
13368;SDS011;6753;52.520;13.450;2023-03-14T00:28:11;967.78;;;862.65;;
13368;SDS011;6753;52.520;13.450;2023-03-14T00:28:23;969.85;;;864.50;;
13368;SDS011;6753;52.520;13.450;2023-03-14T00:28:33;970.97;;;865.55;;
13368;SDS011;6753;52.520;13.450;2023-03-14T00:28:46;970.13;;;864.67;;
13368;SDS011;6753;52.520;13.450;2023-03-14T00:29:00;968.53;;;863.28;;
13368;SDS011;6753;52.520;13.450;2023-03-14T00:29:11;966.53;;;861.60;;
13368;SDS011;6753;52.520;13.450;2023-03-14T00:29:22;964.00;;;859.28;;
13368;SDS011;6753;52.520;13.450;2023-03-14T00:29:32;961.70;;;857.17;;
13368;SDS011;6753;52.520;13.450;2023-03-14T00:29:43;962.83;;;858.23;;
13368;SDS011;6753;52.520;13.450;2023-03-14T00:29:54;962.67;;;858.13;;
13368;SDS011;6753;52.520;13.450;2023-03-14T00:30:06;963.08;;;858.55;;
13368;SDS011;6753;52.520;13.450;2023-03-14T00:30:20;963.80;;;859.50;;
13368;SDS011;6753;52.520;13.450;2023-03-14T00:30:31;965.25;;;860.85;;
13368;SDS011;6753;52.520;13.450;2023-03-14T00:30:42;963.35;;;859.05;;
13368;SDS011;6753;52.520;13.450;2023-03-14T00:30:53;963.50;;;859.22;;
13368;SDS011;6753;52.520;13.450;2023-03-14T00:31:04;964.80;;;860.40;;
13368;SDS011;6753;52.520;13.450;2023-03-14T00:31:16;967.33;;;862.35;;
13368;SDS011;6753;52.520;13.450;2023-03-14T00:31:27;966.72;;;861.67;;
13368;SDS011;6753;52.520;13.450;2023-03-14T00:31:38;968.33;;;863.15;;
13368;SDS011;6753;52.520;13.450;2023-03-14T00:31:49;968.05;;;862.88;;
13368;SDS011;6753;52.520;13.450;2023-03-14T00:32:00;967.63;;;862.50;;
13368;SDS011;6753;52.520;13.450;2023-03-14T00:32:10;967.13;;;862.17;;
13368;SDS011;6753;52.520;13.450;2023-03-14T00:32:21;966.05;;;861.35;;
13368;SDS011;6753;52.520;13.450;2023-03-14T00:32:32;965.15;;;860.55;;
13368;SDS011;6753;52.520;13.450;2023-03-14T00:32:43;965.40;;;860.83;;
13368;SDS011;6753;52.520;13.450;2023-03-14T00:32:55;965.65;;;861.28;;
13368;SDS011;6753;52.520;13.450;2023-03-14T00:33:05;966.00;;;861.45;;
13368;SDS011;6753;52.520;13.450;2023-03-14T00:33:16;965.22;;;860.83;;
13368;SDS011;6753;52.520;13.450;2023-03-14T00:33:27;964.65;;;860.15;;
13368;SDS011;6753;52.520;13.450;2023-03-14T00:33:38;964.60;;;860.07;;
13368;SDS011;6753;52.520;13.450;2023-03-14T00:33:48;962.53;;;858.22;;
13368;SDS011;6753;52.520;13.450;2023-03-14T00:34:02;960.17;;;856.10;;
13368;SDS011;6753;52.520;13.450;2023-03-14T00:34:13;958.47;;;854.55;;
13368;SDS011;6753;52.520;13.450;2023-03-14T00:34:28;956.22;;;852.47;;
13368;SDS011;6753;52.520;13.450;2023-03-14T00:34:39;954.45;;;850.95;;
13368;SDS011;6753;52.520;13.450;2023-03-14T00:34:50;954.27;;;850.57;;
13368;SDS011;6753;52.520;13.450;2023-03-14T00:35:00;955.20;;;851.28;;
13368;SDS011;6753;52.520;13.450;2023-03-14T00:35:11;953.88;;;850.35;;
13368;SDS011;6753;52.520;13.450;2023-03-14T00:35:22;955.33;;;851.63;;
13368;SDS011;6753;52.520;13.450;2023-03-14T00:35:33;958.55;;;854.30;;
13368;SDS011;6753;52.520;13.450;2023-03-14T00:35:51;958.03;;;853.88;;
13368;SDS011;6753;52.520;13.450;2023-03-14T00:36:03;954.78;;;851.10;;
13368;SDS011;6753;52.520;13.450;2023-03-14T00:36:18;954.67;;;850.95;;
13368;SDS011;6753;52.520;13.450;2023-03-14T00:36:30;951.00;;;847.85;;
13368;SDS011;6753;52.520;13.450;2023-03-14T00:36:41;946.47;;;843.90;;
13368;SDS011;6753;52.520;13.450;2023-03-14T00:36:52;941.10;;;839.28;;
13368;SDS011;6753;52.520;13.450;2023-03-14T00:37:03;934.72;;;833.65;;
13368;SDS011;6753;52.520;13.450;2023-03-14T00:37:14;928.77;;;828.40;;
13368;SDS011;6753;52.520;13.450;2023-03-14T00:37:26;923.35;;;823.90;;
13368;SDS011;6753;52.520;13.450;2023-03-14T00:37:37;918.72;;;819.83;;
13368;SDS011;6753;52.520;13.450;2023-03-14T00:37:48;916.00;;;817.50;;
13368;SDS011;6753;52.520;13.450;2023-03-14T00:37:58;917.33;;;818.83;;
13368;SDS011;6753;52.520;13.450;2023-03-14T00:38:09;918.87;;;820.17;;
13368;SDS011;6753;52.520;13.450;2023-03-14T00:38:20;919.88;;;820.88;;
13368;SDS011;6753;52.520;13.450;2023-03-14T00:38:32;919.35;;;820.35;;
13368;SDS011;6753;52.520;13.450;2023-03-14T00:38:45;912.45;;;814.47;;
13368;SDS011;6753;52.520;13.450;2023-03-14T00:38:57;910.38;;;812.72;;
13368;SDS011;6753;52.520;13.450;2023-03-14T00:39:08;906.42;;;809.63;;
13368;SDS011;6753;52.520;13.450;2023-03-14T00:39:18;900.53;;;804.70;;
13368;SDS011;6753;52.520;13.450;2023-03-14T00:39:29;898.53;;;803.03;;
13368;SDS011;6753;52.520;13.450;2023-03-14T00:39:40;899.72;;;804.08;;
13368;SDS011;6753;52.520;13.450;2023-03-14T00:39:52;897.63;;;802.28;;
13368;SDS011;6753;52.520;13.450;2023-03-14T00:40:03;892.97;;;798.13;;
13368;SDS011;6753;52.520;13.450;2023-03-14T00:40:16;894.53;;;799.38;;
13368;SDS011;6753;52.520;13.450;2023-03-14T00:40:27;893.65;;;798.65;;
13368;SDS011;6753;52.520;13.450;2023-03-14T00:40:38;892.20;;;797.47;;
13368;SDS011;6753;52.520;13.450;2023-03-14T00:40:49;889.67;;;795.22;;
13368;SDS011;6753;52.520;13.450;2023-03-14T00:41:02;895.72;;;800.65;;
13368;SDS011;6753;52.520;13.450;2023-03-14T00:41:15;888.38;;;794.17;;
13368;SDS011;6753;52.520;13.450;2023-03-14T00:41:27;879.97;;;786.92;;
13368;SDS011;6753;52.520;13.450;2023-03-14T00:41:37;874.08;;;781.58;;
13368;SDS011;6753;52.520;13.450;2023-03-14T00:41:48;872.05;;;779.72;;
13368;SDS011;6753;52.520;13.450;2023-03-14T00:41:59;865.25;;;773.53;;
13368;SDS011;6753;52.520;13.450;2023-03-14T00:42:10;862.27;;;770.87;;
13368;SDS011;6753;52.520;13.450;2023-03-14T00:42:21;863.90;;;772.00;;
13368;SDS011;6753;52.520;13.450;2023-03-14T00:42:31;869.95;;;777.45;;
13368;SDS011;6753;52.520;13.450;2023-03-14T00:42:43;872.95;;;780.15;;
13368;SDS011;6753;52.520;13.450;2023-03-14T00:42:54;871.10;;;778.53;;
13368;SDS011;6753;52.520;13.450;2023-03-14T00:43:04;866.40;;;774.42;;
13368;SDS011;6753;52.520;13.450;2023-03-14T00:43:16;855.95;;;765.20;;
13368;SDS011;6753;52.520;13.450;2023-03-14T00:43:27;844.85;;;755.58;;
13368;SDS011;6753;52.520;13.450;2023-03-14T00:43:37;833.63;;;745.58;;
13368;SDS011;6753;52.520;13.450;2023-03-14T00:43:51;824.85;;;737.80;;
13368;SDS011;6753;52.520;13.450;2023-03-14T00:44:03;823.20;;;736.50;;
13368;SDS011;6753;52.520;13.450;2023-03-14T00:44:14;827.40;;;740.53;;
13368;SDS011;6753;52.520;13.450;2023-03-14T00:44:25;825.65;;;738.90;;
13368;SDS011;6753;52.520;13.450;2023-03-14T00:44:35;821.03;;;734.83;;
13368;SDS011;6753;52.520;13.450;2023-03-14T00:44:46;817.35;;;731.53;;
13368;SDS011;6753;52.520;13.450;2023-03-14T00:44:57;812.30;;;726.97;;
13368;SDS011;6753;52.520;13.450;2023-03-14T00:45:08;807.60;;;722.70;;
13368;SDS011;6753;52.520;13.450;2023-03-14T00:45:20;803.83;;;719.22;;
13368;SDS011;6753;52.520;13.450;2023-03-14T00:45:31;804.80;;;720.35;;
13368;SDS011;6753;52.520;13.450;2023-03-14T00:45:42;807.87;;;723.13;;
13368;SDS011;6753;52.520;13.450;2023-03-14T00:45:53;810.42;;;725.30;;
13368;SDS011;6753;52.520;13.450;2023-03-14T00:46:04;817.17;;;731.13;;
13368;SDS011;6753;52.520;13.450;2023-03-14T00:46:15;816.63;;;730.72;;
13368;SDS011;6753;52.520;13.450;2023-03-14T00:46:26;817.77;;;731.57;;
13368;SDS011;6753;52.520;13.450;2023-03-14T00:46:37;823.47;;;736.53;;
13368;SDS011;6753;52.520;13.450;2023-03-14T00:46:48;817.03;;;731.00;;
13368;SDS011;6753;52.520;13.450;2023-03-14T00:46:59;805.70;;;720.97;;
13368;SDS011;6753;52.520;13.450;2023-03-14T00:47:10;796.93;;;713.03;;
13368;SDS011;6753;52.520;13.450;2023-03-14T00:47:21;791.33;;;708.03;;
13368;SDS011;6753;52.520;13.450;2023-03-14T00:47:32;780.45;;;698.40;;
13368;SDS011;6753;52.520;13.450;2023-03-14T00:47:42;778.37;;;696.57;;
13368;SDS011;6753;52.520;13.450;2023-03-14T00:47:55;773.75;;;692.55;;
13368;SDS011;6753;52.520;13.450;2023-03-14T00:48:06;769.00;;;688.60;;
13368;SDS011;6753;52.520;13.450;2023-03-14T00:48:17;771.25;;;690.55;;
13368;SDS011;6753;52.520;13.450;2023-03-14T00:48:29;770.75;;;690.17;;
13368;SDS011;6753;52.520;13.450;2023-03-14T00:48:40;768.42;;;688.00;;
13368;SDS011;6753;52.520;13.450;2023-03-14T00:48:51;770.30;;;689.70;;
13368;SDS011;6753;52.520;13.450;2023-03-14T00:49:02;772.40;;;691.42;;
13368;SDS011;6753;52.520;13.450;2023-03-14T00:49:12;765.40;;;685.20;;
13368;SDS011;6753;52.520;13.450;2023-03-14T00:49:23;764.78;;;684.67;;
13368;SDS011;6753;52.520;13.450;2023-03-14T00:49:34;759.35;;;679.90;;
13368;SDS011;6753;52.520;13.450;2023-03-14T00:49:46;750.72;;;672.10;;
13368;SDS011;6753;52.520;13.450;2023-03-14T00:49:56;744.00;;;665.97;;
13368;SDS011;6753;52.520;13.450;2023-03-14T00:50:08;746.30;;;668.00;;
13368;SDS011;6753;52.520;13.450;2023-03-14T00:50:19;741.60;;;663.75;;
13368;SDS011;6753;52.520;13.450;2023-03-14T00:50:30;738.30;;;660.90;;
13368;SDS011;6753;52.520;13.450;2023-03-14T00:50:41;737.05;;;659.72;;
13368;SDS011;6753;52.520;13.450;2023-03-14T00:50:52;739.85;;;662.17;;
13368;SDS011;6753;52.520;13.450;2023-03-14T00:51:03;738.40;;;660.97;;
13368;SDS011;6753;52.520;13.450;2023-03-14T00:51:16;741.97;;;664.28;;
13368;SDS011;6753;52.520;13.450;2023-03-14T00:51:26;736.95;;;659.78;;
13368;SDS011;6753;52.520;13.450;2023-03-14T00:51:37;734.88;;;657.78;;
13368;SDS011;6753;52.520;13.450;2023-03-14T00:51:48;731.58;;;654.92;;
13368;SDS011;6753;52.520;13.450;2023-03-14T00:51:59;727.17;;;651.00;;
13368;SDS011;6753;52.520;13.450;2023-03-14T00:52:09;719.78;;;644.33;;
13368;SDS011;6753;52.520;13.450;2023-03-14T00:52:20;719.50;;;644.13;;
13368;SDS011;6753;52.520;13.450;2023-03-14T00:52:32;722.80;;;647.10;;
13368;SDS011;6753;52.520;13.450;2023-03-14T00:52:44;719.53;;;644.13;;
13368;SDS011;6753;52.520;13.450;2023-03-14T00:52:56;720.17;;;644.55;;
13368;SDS011;6753;52.520;13.450;2023-03-14T00:53:08;721.25;;;645.40;;
13368;SDS011;6753;52.520;13.450;2023-03-14T00:53:19;717.30;;;641.83;;
13368;SDS011;6753;52.520;13.450;2023-03-14T00:53:30;715.63;;;640.33;;
13368;SDS011;6753;52.520;13.450;2023-03-14T00:53:41;719.63;;;644.08;;
13368;SDS011;6753;52.520;13.450;2023-03-14T00:53:52;720.95;;;645.15;;
13368;SDS011;6753;52.520;13.450;2023-03-14T00:54:02;718.88;;;643.17;;
13368;SDS011;6753;52.520;13.450;2023-03-14T00:54:14;721.28;;;645.35;;
13368;SDS011;6753;52.520;13.450;2023-03-14T00:54:25;725.00;;;648.60;;
13368;SDS011;6753;52.520;13.450;2023-03-14T00:54:36;715.75;;;640.17;;
13368;SDS011;6753;52.520;13.450;2023-03-14T00:54:47;711.38;;;635.92;;
13368;SDS011;6753;52.520;13.450;2023-03-14T00:54:57;707.40;;;632.47;;
13368;SDS011;6753;52.520;13.450;2023-03-14T00:55:08;704.13;;;629.53;;
13368;SDS011;6753;52.520;13.450;2023-03-14T00:55:19;704.13;;;629.50;;
13368;SDS011;6753;52.520;13.450;2023-03-14T00:55:30;700.63;;;626.17;;
13368;SDS011;6753;52.520;13.450;2023-03-14T00:55:41;701.55;;;627.20;;
13368;SDS011;6753;52.520;13.450;2023-03-14T00:55:54;702.55;;;628.15;;
13368;SDS011;6753;52.520;13.450;2023-03-14T00:56:06;701.83;;;627.35;;
13368;SDS011;6753;52.520;13.450;2023-03-14T00:56:18;699.08;;;624.78;;
13368;SDS011;6753;52.520;13.450;2023-03-14T00:56:29;702.10;;;627.65;;
13368;SDS011;6753;52.520;13.450;2023-03-14T00:56:41;706.58;;;631.58;;
13368;SDS011;6753;52.520;13.450;2023-03-14T00:56:51;713.53;;;638.05;;
13368;SDS011;6753;52.520;13.450;2023-03-14T00:57:03;722.60;;;646.35;;
13368;SDS011;6753;52.520;13.450;2023-03-14T00:57:14;728.45;;;651.72;;
13368;SDS011;6753;52.520;13.450;2023-03-14T00:57:25;732.80;;;655.55;;
13368;SDS011;6753;52.520;13.450;2023-03-14T00:57:35;737.50;;;659.80;;
13368;SDS011;6753;52.520;13.450;2023-03-14T00:57:46;732.42;;;655.10;;
13368;SDS011;6753;52.520;13.450;2023-03-14T00:57:57;726.70;;;649.92;;
13368;SDS011;6753;52.520;13.450;2023-03-14T00:58:08;722.10;;;645.55;;
13368;SDS011;6753;52.520;13.450;2023-03-14T00:58:19;717.92;;;641.90;;
13368;SDS011;6753;52.520;13.450;2023-03-14T00:58:31;715.33;;;639.42;;
13368;SDS011;6753;52.520;13.450;2023-03-14T00:58:42;716.55;;;640.25;;
13368;SDS011;6753;52.520;13.450;2023-03-14T00:58:53;717.53;;;641.20;;
13368;SDS011;6753;52.520;13.450;2023-03-14T00:59:04;716.50;;;640.58;;
13368;SDS011;6753;52.520;13.450;2023-03-14T00:59:15;716.80;;;640.97;;
13368;SDS011;6753;52.520;13.450;2023-03-14T00:59:26;713.58;;;638.00;;
13368;SDS011;6753;52.520;13.450;2023-03-14T00:59:37;708.95;;;633.90;;
13368;SDS011;6753;52.520;13.450;2023-03-14T00:59:50;704.25;;;629.80;;
13368;SDS011;6753;52.520;13.450;2023-03-14T01:00:01;701.05;;;626.75;;
13368;SDS011;6753;52.520;13.450;2023-03-14T01:00:16;699.22;;;624.85;;
13368;SDS011;6753;52.520;13.450;2023-03-14T01:00:27;700.50;;;625.97;;
13368;SDS011;6753;52.520;13.450;2023-03-14T01:00:38;700.80;;;626.40;;
13368;SDS011;6753;52.520;13.450;2023-03-14T01:00:49;701.88;;;627.38;;
13368;SDS011;6753;52.520;13.450;2023-03-14T01:01:04;703.97;;;629.37;;
13368;SDS011;6753;52.520;13.450;2023-03-14T01:01:17;706.70;;;632.10;;
13368;SDS011;6753;52.520;13.450;2023-03-14T01:01:32;709.13;;;634.40;;
13368;SDS011;6753;52.520;13.450;2023-03-14T01:01:43;712.30;;;637.50;;
13368;SDS011;6753;52.520;13.450;2023-03-14T01:01:54;711.08;;;636.28;;
13368;SDS011;6753;52.520;13.450;2023-03-14T01:02:04;710.42;;;635.58;;
13368;SDS011;6753;52.520;13.450;2023-03-14T01:02:15;710.72;;;635.78;;
13368;SDS011;6753;52.520;13.450;2023-03-14T01:02:26;708.30;;;633.57;;
13368;SDS011;6753;52.520;13.450;2023-03-14T01:02:37;706.47;;;631.88;;
13368;SDS011;6753;52.520;13.450;2023-03-14T01:02:47;705.80;;;631.25;;
13368;SDS011;6753;52.520;13.450;2023-03-14T01:02:58;706.30;;;631.80;;
13368;SDS011;6753;52.520;13.450;2023-03-14T01:03:10;706.25;;;631.58;;
13368;SDS011;6753;52.520;13.450;2023-03-14T01:03:22;706.10;;;631.70;;
13368;SDS011;6753;52.520;13.450;2023-03-14T01:03:35;707.63;;;633.13;;
13368;SDS011;6753;52.520;13.450;2023-03-14T01:03:47;707.45;;;632.95;;
13368;SDS011;6753;52.520;13.450;2023-03-14T01:04:00;710.17;;;635.58;;
13368;SDS011;6753;52.520;13.450;2023-03-14T01:04:11;709.63;;;635.10;;
13368;SDS011;6753;52.520;13.450;2023-03-14T01:04:22;709.92;;;635.20;;